<?xml version="1.0" encoding="UTF-8" standalone="no" ?>
<gpx xmlns="http://www.topografix.com/GPX/1/1" xmlns:xsi="http://www.w3.org/2001/XMLSchema-instance" xsi:schemaLocation="http://www.topografix.com/GPX/1/1 http://www.topografix.com/GPX/1/1/gpx.xsd" version="1.1" creator="VisuGPX - https://www.visugpx.com">
  <metadata>
    <name>Rieux_ValdeVilaine_20-23km</name>
    <desc><![CDATA[gnerando idor:6533441_10496627]]></desc>
  </metadata>
  <trk>
    <name><![CDATA[Rieux_ValDeVilaine_22.7km-10496627]]></name>
    <extensions>
      <line xmlns="http://www.topografix.com/GPX/gpx_style/0/2">
        <color>00FF00</color>
        <width>7</width>
      </line>
    </extensions>
    <trkseg>
      <trkpt lat="47.59787" lon="-2.10686">
        <ele>23</ele>
        <time>2023-11-11T19:08:23Z</time>
      </trkpt>
      <trkpt lat="47.59806" lon="-2.10612">
        <ele>23</ele>
        <time>2023-11-11T19:09:34Z</time>
      </trkpt>
      <trkpt lat="47.59812" lon="-2.10521">
        <ele>20</ele>
        <time>2023-11-11T19:10:57Z</time>
      </trkpt>
      <trkpt lat="47.59839" lon="-2.10444">
        <ele>19</ele>
        <time>2023-11-11T19:12:15Z</time>
      </trkpt>
      <trkpt lat="47.59853" lon="-2.10376">
        <ele>18</ele>
        <time>2023-11-11T19:13:19Z</time>
      </trkpt>
      <trkpt lat="47.59869" lon="-2.10276">
        <ele>17</ele>
        <time>2023-11-11T19:14:51Z</time>
      </trkpt>
      <trkpt lat="47.59831" lon="-2.1028">
        <ele>18</ele>
        <time>2023-11-11T19:15:42Z</time>
      </trkpt>
      <trkpt lat="47.59833" lon="-2.10188">
        <ele>15</ele>
        <time>2023-11-11T19:17:05Z</time>
      </trkpt>
      <trkpt lat="47.59823" lon="-2.10063">
        <ele>9</ele>
        <time>2023-11-11T19:18:58Z</time>
      </trkpt>
      <trkpt lat="47.5981" lon="-2.10009">
        <ele>8</ele>
        <time>2023-11-11T19:19:50Z</time>
      </trkpt>
      <trkpt lat="47.59794" lon="-2.10008">
        <ele>7</ele>
        <time>2023-11-11T19:20:11Z</time>
      </trkpt>
      <trkpt lat="47.59795" lon="-2.10011">
        <ele>7</ele>
        <time>2023-11-11T19:20:14Z</time>
      </trkpt>
      <trkpt lat="47.5979" lon="-2.10004">
        <ele>7</ele>
        <time>2023-11-11T19:20:23Z</time>
      </trkpt>
      <trkpt lat="47.59774" lon="-2.10012">
        <ele>6</ele>
        <time>2023-11-11T19:20:46Z</time>
      </trkpt>
      <trkpt lat="47.59767" lon="-2.10026">
        <ele>6</ele>
        <time>2023-11-11T19:21:01Z</time>
      </trkpt>
      <trkpt lat="47.59736" lon="-2.10102">
        <ele>6</ele>
        <time>2023-11-11T19:22:21Z</time>
      </trkpt>
      <trkpt lat="47.59718" lon="-2.10131">
        <ele>6</ele>
        <time>2023-11-11T19:22:57Z</time>
      </trkpt>
      <trkpt lat="47.59707" lon="-2.10166">
        <ele>6</ele>
        <time>2023-11-11T19:23:32Z</time>
      </trkpt>
      <trkpt lat="47.59711" lon="-2.10215">
        <ele>8</ele>
        <time>2023-11-11T19:24:16Z</time>
      </trkpt>
      <trkpt lat="47.59679" lon="-2.10347">
        <ele>7</ele>
        <time>2023-11-11T19:26:22Z</time>
      </trkpt>
      <trkpt lat="47.59705" lon="-2.10406">
        <ele>10</ele>
        <time>2023-11-11T19:27:26Z</time>
      </trkpt>
      <trkpt lat="47.59701" lon="-2.10422">
        <ele>10</ele>
        <time>2023-11-11T19:27:41Z</time>
      </trkpt>
      <trkpt lat="47.5966" lon="-2.10462">
        <ele>9</ele>
        <time>2023-11-11T19:28:46Z</time>
      </trkpt>
      <trkpt lat="47.59542" lon="-2.10428">
        <ele>11</ele>
        <time>2023-11-11T19:31:27Z</time>
      </trkpt>
      <trkpt lat="47.59468" lon="-2.10403">
        <ele>8</ele>
        <time>2023-11-11T19:33:08Z</time>
      </trkpt>
      <trkpt lat="47.59417" lon="-2.1042">
        <ele>6</ele>
        <time>2023-11-11T19:34:18Z</time>
      </trkpt>
      <trkpt lat="47.59406" lon="-2.10415">
        <ele>6</ele>
        <time>2023-11-11T19:34:33Z</time>
      </trkpt>
      <trkpt lat="47.59401" lon="-2.10389">
        <ele>5</ele>
        <time>2023-11-11T19:34:58Z</time>
      </trkpt>
      <trkpt lat="47.59263" lon="-2.10431">
        <ele>3</ele>
        <time>2023-11-11T19:38:06Z</time>
      </trkpt>
      <trkpt lat="47.59151" lon="-2.10446">
        <ele>2</ele>
        <time>2023-11-11T19:40:36Z</time>
      </trkpt>
      <trkpt lat="47.59042" lon="-2.10473">
        <ele>3</ele>
        <time>2023-11-11T19:43:03Z</time>
      </trkpt>
      <trkpt lat="47.59004" lon="-2.10478">
        <ele>3</ele>
        <time>2023-11-11T19:43:54Z</time>
      </trkpt>
      <trkpt lat="47.58922" lon="-2.10454">
        <ele>3</ele>
        <time>2023-11-11T19:45:46Z</time>
      </trkpt>
      <trkpt lat="47.58723" lon="-2.10358">
        <ele>4</ele>
        <time>2023-11-11T19:50:25Z</time>
      </trkpt>
      <trkpt lat="47.58656" lon="-2.10333">
        <ele>2</ele>
        <time>2023-11-11T19:51:57Z</time>
      </trkpt>
      <trkpt lat="47.58646" lon="-2.10357">
        <ele>2</ele>
        <time>2023-11-11T19:52:22Z</time>
      </trkpt>
      <trkpt lat="47.58542" lon="-2.10815">
        <ele>3</ele>
        <time>2023-11-11T19:59:37Z</time>
      </trkpt>
      <trkpt lat="47.58554" lon="-2.10963">
        <ele>4</ele>
        <time>2023-11-11T20:01:52Z</time>
      </trkpt>
      <trkpt lat="47.5855" lon="-2.10992">
        <ele>4</ele>
        <time>2023-11-11T20:02:18Z</time>
      </trkpt>
      <trkpt lat="47.58554" lon="-2.11016">
        <ele>4</ele>
        <time>2023-11-11T20:02:40Z</time>
      </trkpt>
      <trkpt lat="47.58567" lon="-2.11043">
        <ele>5</ele>
        <time>2023-11-11T20:03:10Z</time>
      </trkpt>
      <trkpt lat="47.58595" lon="-2.11045">
        <ele>6</ele>
        <time>2023-11-11T20:03:48Z</time>
      </trkpt>
      <trkpt lat="47.58654" lon="-2.11035">
        <ele>8</ele>
        <time>2023-11-11T20:05:07Z</time>
      </trkpt>
      <trkpt lat="47.5866" lon="-2.11037">
        <ele>9</ele>
        <time>2023-11-11T20:05:15Z</time>
      </trkpt>
      <trkpt lat="47.58671" lon="-2.11054">
        <ele>9</ele>
        <time>2023-11-11T20:05:36Z</time>
      </trkpt>
      <trkpt lat="47.58719" lon="-2.11446">
        <ele>6</ele>
        <time>2023-11-11T20:11:35Z</time>
      </trkpt>
      <trkpt lat="47.58738" lon="-2.11542">
        <ele>6</ele>
        <time>2023-11-11T20:13:05Z</time>
      </trkpt>
      <trkpt lat="47.58757" lon="-2.11558">
        <ele>7</ele>
        <time>2023-11-11T20:13:34Z</time>
      </trkpt>
      <trkpt lat="47.58773" lon="-2.11561">
        <ele>8</ele>
        <time>2023-11-11T20:13:56Z</time>
      </trkpt>
      <trkpt lat="47.58843" lon="-2.11554">
        <ele>12</ele>
        <time>2023-11-11T20:15:29Z</time>
      </trkpt>
      <trkpt lat="47.58855" lon="-2.11572">
        <ele>13</ele>
        <time>2023-11-11T20:15:52Z</time>
      </trkpt>
      <trkpt lat="47.58887" lon="-2.11847">
        <ele>7</ele>
        <time>2023-11-11T20:20:03Z</time>
      </trkpt>
      <trkpt lat="47.58904" lon="-2.11975">
        <ele>5</ele>
        <time>2023-11-11T20:22:01Z</time>
      </trkpt>
      <trkpt lat="47.58908" lon="-2.11986">
        <ele>5</ele>
        <time>2023-11-11T20:22:12Z</time>
      </trkpt>
      <trkpt lat="47.58902" lon="-2.11993">
        <ele>5</ele>
        <time>2023-11-11T20:22:22Z</time>
      </trkpt>
      <trkpt lat="47.58926" lon="-2.12003">
        <ele>5</ele>
        <time>2023-11-11T20:22:55Z</time>
      </trkpt>
      <trkpt lat="47.58946" lon="-2.12001">
        <ele>5</ele>
        <time>2023-11-11T20:23:22Z</time>
      </trkpt>
      <trkpt lat="47.58955" lon="-2.12011">
        <ele>5</ele>
        <time>2023-11-11T20:23:37Z</time>
      </trkpt>
      <trkpt lat="47.58946" lon="-2.12045">
        <ele>4</ele>
        <time>2023-11-11T20:24:10Z</time>
      </trkpt>
      <trkpt lat="47.58915" lon="-2.12119">
        <ele>3</ele>
        <time>2023-11-11T20:25:28Z</time>
      </trkpt>
      <trkpt lat="47.58902" lon="-2.12185">
        <ele>4</ele>
        <time>2023-11-11T20:26:30Z</time>
      </trkpt>
      <trkpt lat="47.58918" lon="-2.12265">
        <ele>5</ele>
        <time>2023-11-11T20:27:45Z</time>
      </trkpt>
      <trkpt lat="47.58971" lon="-2.12461">
        <ele>4</ele>
        <time>2023-11-11T20:30:55Z</time>
      </trkpt>
      <trkpt lat="47.58974" lon="-2.12527">
        <ele>4</ele>
        <time>2023-11-11T20:31:55Z</time>
      </trkpt>
      <trkpt lat="47.58982" lon="-2.12573">
        <ele>4</ele>
        <time>2023-11-11T20:32:38Z</time>
      </trkpt>
      <trkpt lat="47.58972" lon="-2.12598">
        <ele>4</ele>
        <time>2023-11-11T20:33:04Z</time>
      </trkpt>
      <trkpt lat="47.58977" lon="-2.12687">
        <ele>4</ele>
        <time>2023-11-11T20:34:24Z</time>
      </trkpt>
      <trkpt lat="47.58973" lon="-2.12742">
        <ele>3</ele>
        <time>2023-11-11T20:35:14Z</time>
      </trkpt>
      <trkpt lat="47.58977" lon="-2.12778">
        <ele>3</ele>
        <time>2023-11-11T20:35:47Z</time>
      </trkpt>
      <trkpt lat="47.58994" lon="-2.12842">
        <ele>4</ele>
        <time>2023-11-11T20:36:49Z</time>
      </trkpt>
      <trkpt lat="47.59022" lon="-2.12892">
        <ele>5</ele>
        <time>2023-11-11T20:37:47Z</time>
      </trkpt>
      <trkpt lat="47.59031" lon="-2.12931">
        <ele>6</ele>
        <time>2023-11-11T20:38:24Z</time>
      </trkpt>
      <trkpt lat="47.59021" lon="-2.12973">
        <ele>5</ele>
        <time>2023-11-11T20:39:04Z</time>
      </trkpt>
      <trkpt lat="47.59" lon="-2.13016">
        <ele>4</ele>
        <time>2023-11-11T20:39:52Z</time>
      </trkpt>
      <trkpt lat="47.58986" lon="-2.13058">
        <ele>3</ele>
        <time>2023-11-11T20:40:34Z</time>
      </trkpt>
      <trkpt lat="47.58981" lon="-2.13086">
        <ele>3</ele>
        <time>2023-11-11T20:41:01Z</time>
      </trkpt>
      <trkpt lat="47.58984" lon="-2.13133">
        <ele>3</ele>
        <time>2023-11-11T20:41:43Z</time>
      </trkpt>
      <trkpt lat="47.59014" lon="-2.13218">
        <ele>6</ele>
        <time>2023-11-11T20:43:09Z</time>
      </trkpt>
      <trkpt lat="47.59036" lon="-2.13246">
        <ele>8</ele>
        <time>2023-11-11T20:43:48Z</time>
      </trkpt>
      <trkpt lat="47.59047" lon="-2.13251">
        <ele>8</ele>
        <time>2023-11-11T20:44:03Z</time>
      </trkpt>
      <trkpt lat="47.59055" lon="-2.13315">
        <ele>11</ele>
        <time>2023-11-11T20:45:02Z</time>
      </trkpt>
      <trkpt lat="47.59067" lon="-2.13332">
        <ele>12</ele>
        <time>2023-11-11T20:45:24Z</time>
      </trkpt>
      <trkpt lat="47.59074" lon="-2.13335">
        <ele>13</ele>
        <time>2023-11-11T20:45:34Z</time>
      </trkpt>
      <trkpt lat="47.59075" lon="-2.1333">
        <ele>13</ele>
        <time>2023-11-11T20:45:39Z</time>
      </trkpt>
      <trkpt lat="47.59084" lon="-2.13352">
        <ele>15</ele>
        <time>2023-11-11T20:46:02Z</time>
      </trkpt>
      <trkpt lat="47.59096" lon="-2.13361">
        <ele>16</ele>
        <time>2023-11-11T20:46:20Z</time>
      </trkpt>
      <trkpt lat="47.59082" lon="-2.13406">
        <ele>17</ele>
        <time>2023-11-11T20:47:04Z</time>
      </trkpt>
      <trkpt lat="47.59075" lon="-2.13445">
        <ele>19</ele>
        <time>2023-11-11T20:47:41Z</time>
      </trkpt>
      <trkpt lat="47.59099" lon="-2.13555">
        <ele>23</ele>
        <time>2023-11-11T20:49:25Z</time>
      </trkpt>
      <trkpt lat="47.59108" lon="-2.13621">
        <ele>24</ele>
        <time>2023-11-11T20:50:25Z</time>
      </trkpt>
      <trkpt lat="47.59123" lon="-2.13623">
        <ele>24</ele>
        <time>2023-11-11T20:50:45Z</time>
      </trkpt>
      <trkpt lat="47.59188" lon="-2.13603">
        <ele>25</ele>
        <time>2023-11-11T20:52:14Z</time>
      </trkpt>
      <trkpt lat="47.5925" lon="-2.13556">
        <ele>24</ele>
        <time>2023-11-11T20:53:47Z</time>
      </trkpt>
      <trkpt lat="47.59345" lon="-2.13534">
        <ele>23</ele>
        <time>2023-11-11T20:55:55Z</time>
      </trkpt>
      <trkpt lat="47.59387" lon="-2.13501">
        <ele>23</ele>
        <time>2023-11-11T20:56:59Z</time>
      </trkpt>
      <trkpt lat="47.59417" lon="-2.13467">
        <ele>23</ele>
        <time>2023-11-11T20:57:49Z</time>
      </trkpt>
      <trkpt lat="47.59456" lon="-2.13435">
        <ele>25</ele>
        <time>2023-11-11T20:58:48Z</time>
      </trkpt>
      <trkpt lat="47.59506" lon="-2.1353">
        <ele>24</ele>
        <time>2023-11-11T21:00:37Z</time>
      </trkpt>
      <trkpt lat="47.59536" lon="-2.13569">
        <ele>24</ele>
        <time>2023-11-11T21:01:30Z</time>
      </trkpt>
      <trkpt lat="47.59571" lon="-2.13599">
        <ele>25</ele>
        <time>2023-11-11T21:02:24Z</time>
      </trkpt>
      <trkpt lat="47.59581" lon="-2.13621">
        <ele>25</ele>
        <time>2023-11-11T21:02:48Z</time>
      </trkpt>
      <trkpt lat="47.59586" lon="-2.13647">
        <ele>25</ele>
        <time>2023-11-11T21:03:12Z</time>
      </trkpt>
      <trkpt lat="47.59596" lon="-2.13661">
        <ele>25</ele>
        <time>2023-11-11T21:03:31Z</time>
      </trkpt>
      <trkpt lat="47.59623" lon="-2.13657">
        <ele>24</ele>
        <time>2023-11-11T21:04:07Z</time>
      </trkpt>
      <trkpt lat="47.59678" lon="-2.13662">
        <ele>23</ele>
        <time>2023-11-11T21:05:20Z</time>
      </trkpt>
      <trkpt lat="47.59791" lon="-2.13633">
        <ele>20</ele>
        <time>2023-11-11T21:07:53Z</time>
      </trkpt>
      <trkpt lat="47.59803" lon="-2.13641">
        <ele>19</ele>
        <time>2023-11-11T21:08:11Z</time>
      </trkpt>
      <trkpt lat="47.59812" lon="-2.13663">
        <ele>18</ele>
        <time>2023-11-11T21:08:34Z</time>
      </trkpt>
      <trkpt lat="47.59813" lon="-2.13695">
        <ele>19</ele>
        <time>2023-11-11T21:09:03Z</time>
      </trkpt>
      <trkpt lat="47.59819" lon="-2.13718">
        <ele>20</ele>
        <time>2023-11-11T21:09:25Z</time>
      </trkpt>
      <trkpt lat="47.59818" lon="-2.13724">
        <ele>20</ele>
        <time>2023-11-11T21:09:31Z</time>
      </trkpt>
      <trkpt lat="47.59792" lon="-2.13743">
        <ele>20</ele>
        <time>2023-11-11T21:10:09Z</time>
      </trkpt>
      <trkpt lat="47.59827" lon="-2.13743">
        <ele>21</ele>
        <time>2023-11-11T21:10:56Z</time>
      </trkpt>
      <trkpt lat="47.59831" lon="-2.13776">
        <ele>23</ele>
        <time>2023-11-11T21:11:26Z</time>
      </trkpt>
      <trkpt lat="47.59823" lon="-2.13921">
        <ele>22</ele>
        <time>2023-11-11T21:13:37Z</time>
      </trkpt>
      <trkpt lat="47.59826" lon="-2.1397">
        <ele>20</ele>
        <time>2023-11-11T21:14:21Z</time>
      </trkpt>
      <trkpt lat="47.5984" lon="-2.14031">
        <ele>20</ele>
        <time>2023-11-11T21:15:19Z</time>
      </trkpt>
      <trkpt lat="47.59848" lon="-2.14048">
        <ele>20</ele>
        <time>2023-11-11T21:15:38Z</time>
      </trkpt>
      <trkpt lat="47.59862" lon="-2.14059">
        <ele>21</ele>
        <time>2023-11-11T21:15:59Z</time>
      </trkpt>
      <trkpt lat="47.59886" lon="-2.14043">
        <ele>22</ele>
        <time>2023-11-11T21:16:34Z</time>
      </trkpt>
      <trkpt lat="47.59927" lon="-2.14">
        <ele>23</ele>
        <time>2023-11-11T21:17:41Z</time>
      </trkpt>
      <trkpt lat="47.59959" lon="-2.13986">
        <ele>25</ele>
        <time>2023-11-11T21:18:26Z</time>
      </trkpt>
      <trkpt lat="47.60004" lon="-2.13952">
        <ele>27</ele>
        <time>2023-11-11T21:19:33Z</time>
      </trkpt>
      <trkpt lat="47.60026" lon="-2.13947">
        <ele>27</ele>
        <time>2023-11-11T21:20:03Z</time>
      </trkpt>
      <trkpt lat="47.60035" lon="-2.13924">
        <ele>28</ele>
        <time>2023-11-11T21:20:27Z</time>
      </trkpt>
      <trkpt lat="47.60057" lon="-2.13805">
        <ele>29</ele>
        <time>2023-11-11T21:22:18Z</time>
      </trkpt>
      <trkpt lat="47.60144" lon="-2.13795">
        <ele>36</ele>
        <time>2023-11-11T21:24:14Z</time>
      </trkpt>
      <trkpt lat="47.60156" lon="-2.13807">
        <ele>38</ele>
        <time>2023-11-11T21:24:34Z</time>
      </trkpt>
      <trkpt lat="47.60159" lon="-2.13835">
        <ele>39</ele>
        <time>2023-11-11T21:24:59Z</time>
      </trkpt>
      <trkpt lat="47.60152" lon="-2.13931">
        <ele>36</ele>
        <time>2023-11-11T21:26:26Z</time>
      </trkpt>
      <trkpt lat="47.60127" lon="-2.14029">
        <ele>34</ele>
        <time>2023-11-11T21:28:00Z</time>
      </trkpt>
      <trkpt lat="47.60088" lon="-2.14139">
        <ele>33</ele>
        <time>2023-11-11T21:29:52Z</time>
      </trkpt>
      <trkpt lat="47.60088" lon="-2.1416">
        <ele>34</ele>
        <time>2023-11-11T21:30:11Z</time>
      </trkpt>
      <trkpt lat="47.60098" lon="-2.14274">
        <ele>39</ele>
        <time>2023-11-11T21:31:55Z</time>
      </trkpt>
      <trkpt lat="47.60105" lon="-2.1429">
        <ele>40</ele>
        <time>2023-11-11T21:32:12Z</time>
      </trkpt>
      <trkpt lat="47.60111" lon="-2.14403">
        <ele>45</ele>
        <time>2023-11-11T21:33:54Z</time>
      </trkpt>
      <trkpt lat="47.60147" lon="-2.14434">
        <ele>50</ele>
        <time>2023-11-11T21:34:49Z</time>
      </trkpt>
      <trkpt lat="47.60156" lon="-2.1445">
        <ele>51</ele>
        <time>2023-11-11T21:35:08Z</time>
      </trkpt>
      <trkpt lat="47.60161" lon="-2.14492">
        <ele>54</ele>
        <time>2023-11-11T21:35:46Z</time>
      </trkpt>
      <trkpt lat="47.60151" lon="-2.1455">
        <ele>54</ele>
        <time>2023-11-11T21:36:40Z</time>
      </trkpt>
      <trkpt lat="47.60134" lon="-2.146">
        <ele>53</ele>
        <time>2023-11-11T21:37:31Z</time>
      </trkpt>
      <trkpt lat="47.60122" lon="-2.14668">
        <ele>51</ele>
        <time>2023-11-11T21:38:34Z</time>
      </trkpt>
      <trkpt lat="47.60127" lon="-2.14765">
        <ele>51</ele>
        <time>2023-11-11T21:40:01Z</time>
      </trkpt>
      <trkpt lat="47.60115" lon="-2.14827">
        <ele>52</ele>
        <time>2023-11-11T21:40:59Z</time>
      </trkpt>
      <trkpt lat="47.60115" lon="-2.14941">
        <ele>55</ele>
        <time>2023-11-11T21:42:42Z</time>
      </trkpt>
      <trkpt lat="47.60102" lon="-2.14996">
        <ele>57</ele>
        <time>2023-11-11T21:43:34Z</time>
      </trkpt>
      <trkpt lat="47.60099" lon="-2.1504">
        <ele>59</ele>
        <time>2023-11-11T21:44:14Z</time>
      </trkpt>
      <trkpt lat="47.60059" lon="-2.15185">
        <ele>56</ele>
        <time>2023-11-11T21:46:35Z</time>
      </trkpt>
      <trkpt lat="47.60038" lon="-2.15219">
        <ele>53</ele>
        <time>2023-11-11T21:47:17Z</time>
      </trkpt>
      <trkpt lat="47.60035" lon="-2.15257">
        <ele>51</ele>
        <time>2023-11-11T21:47:51Z</time>
      </trkpt>
      <trkpt lat="47.60049" lon="-2.15325">
        <ele>46</ele>
        <time>2023-11-11T21:48:55Z</time>
      </trkpt>
      <trkpt lat="47.60043" lon="-2.15328">
        <ele>45</ele>
        <time>2023-11-11T21:49:04Z</time>
      </trkpt>
      <trkpt lat="47.60082" lon="-2.15428">
        <ele>41</ele>
        <time>2023-11-11T21:50:48Z</time>
      </trkpt>
      <trkpt lat="47.60087" lon="-2.15437">
        <ele>41</ele>
        <time>2023-11-11T21:50:58Z</time>
      </trkpt>
      <trkpt lat="47.60104" lon="-2.15439">
        <ele>43</ele>
        <time>2023-11-11T21:51:21Z</time>
      </trkpt>
      <trkpt lat="47.6011" lon="-2.15449">
        <ele>43</ele>
        <time>2023-11-11T21:51:33Z</time>
      </trkpt>
      <trkpt lat="47.60114" lon="-2.15491">
        <ele>40</ele>
        <time>2023-11-11T21:52:11Z</time>
      </trkpt>
      <trkpt lat="47.60103" lon="-2.15571">
        <ele>32</ele>
        <time>2023-11-11T21:53:24Z</time>
      </trkpt>
      <trkpt lat="47.60092" lon="-2.15621">
        <ele>28</ele>
        <time>2023-11-11T21:54:12Z</time>
      </trkpt>
      <trkpt lat="47.60098" lon="-2.15642">
        <ele>27</ele>
        <time>2023-11-11T21:54:32Z</time>
      </trkpt>
      <trkpt lat="47.60089" lon="-2.15693">
        <ele>23</ele>
        <time>2023-11-11T21:55:20Z</time>
      </trkpt>
      <trkpt lat="47.60153" lon="-2.15707">
        <ele>22</ele>
        <time>2023-11-11T21:56:46Z</time>
      </trkpt>
      <trkpt lat="47.60216" lon="-2.15709">
        <ele>21</ele>
        <time>2023-11-11T21:58:10Z</time>
      </trkpt>
      <trkpt lat="47.60303" lon="-2.15631">
        <ele>25</ele>
        <time>2023-11-11T22:00:26Z</time>
      </trkpt>
      <trkpt lat="47.60284" lon="-2.15653">
        <ele>24</ele>
        <time>2023-11-11T22:00:58Z</time>
      </trkpt>
      <trkpt lat="47.60275" lon="-2.15656">
        <ele>23</ele>
        <time>2023-11-11T22:01:10Z</time>
      </trkpt>
      <trkpt lat="47.60216" lon="-2.15703">
        <ele>21</ele>
        <time>2023-11-11T22:02:40Z</time>
      </trkpt>
      <trkpt lat="47.60191" lon="-2.15708">
        <ele>22</ele>
        <time>2023-11-11T22:03:13Z</time>
      </trkpt>
      <trkpt lat="47.60185" lon="-2.15721">
        <ele>21</ele>
        <time>2023-11-11T22:03:28Z</time>
      </trkpt>
      <trkpt lat="47.60182" lon="-2.15712">
        <ele>21</ele>
        <time>2023-11-11T22:03:37Z</time>
      </trkpt>
      <trkpt lat="47.60188" lon="-2.15803">
        <ele>18</ele>
        <time>2023-11-11T22:04:59Z</time>
      </trkpt>
      <trkpt lat="47.60285" lon="-2.15809">
        <ele>19</ele>
        <time>2023-11-11T22:07:08Z</time>
      </trkpt>
      <trkpt lat="47.6034" lon="-2.15845">
        <ele>19</ele>
        <time>2023-11-11T22:08:29Z</time>
      </trkpt>
      <trkpt lat="47.60375" lon="-2.15849">
        <ele>19</ele>
        <time>2023-11-11T22:09:15Z</time>
      </trkpt>
      <trkpt lat="47.60429" lon="-2.15841">
        <ele>20</ele>
        <time>2023-11-11T22:10:28Z</time>
      </trkpt>
      <trkpt lat="47.60598" lon="-2.15837">
        <ele>24</ele>
        <time>2023-11-11T22:14:13Z</time>
      </trkpt>
      <trkpt lat="47.60648" lon="-2.15831">
        <ele>27</ele>
        <time>2023-11-11T22:15:20Z</time>
      </trkpt>
      <trkpt lat="47.60693" lon="-2.15817">
        <ele>30</ele>
        <time>2023-11-11T22:16:22Z</time>
      </trkpt>
      <trkpt lat="47.60749" lon="-2.15828">
        <ele>34</ele>
        <time>2023-11-11T22:17:37Z</time>
      </trkpt>
      <trkpt lat="47.60777" lon="-2.15817">
        <ele>34</ele>
        <time>2023-11-11T22:18:16Z</time>
      </trkpt>
      <trkpt lat="47.60785" lon="-2.1582">
        <ele>34</ele>
        <time>2023-11-11T22:18:27Z</time>
      </trkpt>
      <trkpt lat="47.60825" lon="-2.15797">
        <ele>34</ele>
        <time>2023-11-11T22:19:24Z</time>
      </trkpt>
      <trkpt lat="47.60919" lon="-2.15761">
        <ele>39</ele>
        <time>2023-11-11T22:21:34Z</time>
      </trkpt>
      <trkpt lat="47.60925" lon="-2.1577">
        <ele>40</ele>
        <time>2023-11-11T22:21:45Z</time>
      </trkpt>
      <trkpt lat="47.6094" lon="-2.15775">
        <ele>41</ele>
        <time>2023-11-11T22:22:05Z</time>
      </trkpt>
      <trkpt lat="47.60965" lon="-2.15808">
        <ele>43</ele>
        <time>2023-11-11T22:22:50Z</time>
      </trkpt>
      <trkpt lat="47.60969" lon="-2.15839">
        <ele>44</ele>
        <time>2023-11-11T22:23:19Z</time>
      </trkpt>
      <trkpt lat="47.60968" lon="-2.15856">
        <ele>44</ele>
        <time>2023-11-11T22:23:34Z</time>
      </trkpt>
      <trkpt lat="47.60988" lon="-2.15894">
        <ele>46</ele>
        <time>2023-11-11T22:24:17Z</time>
      </trkpt>
      <trkpt lat="47.60989" lon="-2.15923">
        <ele>47</ele>
        <time>2023-11-11T22:24:43Z</time>
      </trkpt>
      <trkpt lat="47.6098" lon="-2.15958">
        <ele>49</ele>
        <time>2023-11-11T22:25:17Z</time>
      </trkpt>
      <trkpt lat="47.60983" lon="-2.15974">
        <ele>50</ele>
        <time>2023-11-11T22:25:32Z</time>
      </trkpt>
      <trkpt lat="47.6098" lon="-2.1597">
        <ele>49</ele>
        <time>2023-11-11T22:25:37Z</time>
      </trkpt>
      <trkpt lat="47.60978" lon="-2.15977">
        <ele>49</ele>
        <time>2023-11-11T22:25:44Z</time>
      </trkpt>
      <trkpt lat="47.60994" lon="-2.15983">
        <ele>51</ele>
        <time>2023-11-11T22:26:06Z</time>
      </trkpt>
      <trkpt lat="47.60989" lon="-2.15963">
        <ele>49</ele>
        <time>2023-11-11T22:26:25Z</time>
      </trkpt>
      <trkpt lat="47.60975" lon="-2.15948">
        <ele>48</ele>
        <time>2023-11-11T22:26:48Z</time>
      </trkpt>
      <trkpt lat="47.60986" lon="-2.1596">
        <ele>49</ele>
        <time>2023-11-11T22:27:07Z</time>
      </trkpt>
      <trkpt lat="47.60981" lon="-2.15956">
        <ele>48</ele>
        <time>2023-11-11T22:27:14Z</time>
      </trkpt>
      <trkpt lat="47.60984" lon="-2.15969">
        <ele>49</ele>
        <time>2023-11-11T22:27:27Z</time>
      </trkpt>
      <trkpt lat="47.60983" lon="-2.15965">
        <ele>49</ele>
        <time>2023-11-11T22:27:30Z</time>
      </trkpt>
      <trkpt lat="47.6099" lon="-2.1597">
        <ele>50</ele>
        <time>2023-11-11T22:27:41Z</time>
      </trkpt>
      <trkpt lat="47.6099" lon="-2.15964">
        <ele>49</ele>
        <time>2023-11-11T22:27:46Z</time>
      </trkpt>
      <trkpt lat="47.61004" lon="-2.15981">
        <ele>51</ele>
        <time>2023-11-11T22:28:10Z</time>
      </trkpt>
      <trkpt lat="47.61004" lon="-2.15978">
        <ele>51</ele>
        <time>2023-11-11T22:28:13Z</time>
      </trkpt>
      <trkpt lat="47.61008" lon="-2.15979">
        <ele>51</ele>
        <time>2023-11-11T22:28:19Z</time>
      </trkpt>
      <trkpt lat="47.61001" lon="-2.15959">
        <ele>50</ele>
        <time>2023-11-11T22:28:39Z</time>
      </trkpt>
      <trkpt lat="47.60993" lon="-2.1596">
        <ele>49</ele>
        <time>2023-11-11T22:28:50Z</time>
      </trkpt>
      <trkpt lat="47.60994" lon="-2.15965">
        <ele>50</ele>
        <time>2023-11-11T22:28:54Z</time>
      </trkpt>
      <trkpt lat="47.60989" lon="-2.15958">
        <ele>49</ele>
        <time>2023-11-11T22:29:03Z</time>
      </trkpt>
      <trkpt lat="47.60994" lon="-2.15963">
        <ele>49</ele>
        <time>2023-11-11T22:29:11Z</time>
      </trkpt>
      <trkpt lat="47.60999" lon="-2.15935">
        <ele>48</ele>
        <time>2023-11-11T22:29:37Z</time>
      </trkpt>
      <trkpt lat="47.61005" lon="-2.15929">
        <ele>48</ele>
        <time>2023-11-11T22:29:47Z</time>
      </trkpt>
      <trkpt lat="47.60999" lon="-2.15902">
        <ele>47</ele>
        <time>2023-11-11T22:30:13Z</time>
      </trkpt>
      <trkpt lat="47.60992" lon="-2.15902">
        <ele>46</ele>
        <time>2023-11-11T22:30:22Z</time>
      </trkpt>
      <trkpt lat="47.60991" lon="-2.15894">
        <ele>46</ele>
        <time>2023-11-11T22:30:29Z</time>
      </trkpt>
      <trkpt lat="47.60989" lon="-2.15908">
        <ele>46</ele>
        <time>2023-11-11T22:30:42Z</time>
      </trkpt>
      <trkpt lat="47.60996" lon="-2.1593">
        <ele>48</ele>
        <time>2023-11-11T22:31:04Z</time>
      </trkpt>
      <trkpt lat="47.61008" lon="-2.15947">
        <ele>49</ele>
        <time>2023-11-11T22:31:26Z</time>
      </trkpt>
      <trkpt lat="47.61008" lon="-2.15973">
        <ele>50</ele>
        <time>2023-11-11T22:31:50Z</time>
      </trkpt>
      <trkpt lat="47.61" lon="-2.15965">
        <ele>50</ele>
        <time>2023-11-11T22:32:03Z</time>
      </trkpt>
      <trkpt lat="47.61001" lon="-2.15928">
        <ele>48</ele>
        <time>2023-11-11T22:32:36Z</time>
      </trkpt>
      <trkpt lat="47.61005" lon="-2.15978">
        <ele>51</ele>
        <time>2023-11-11T22:33:21Z</time>
      </trkpt>
      <trkpt lat="47.61018" lon="-2.15997">
        <ele>52</ele>
        <time>2023-11-11T22:33:46Z</time>
      </trkpt>
      <trkpt lat="47.60992" lon="-2.15964">
        <ele>49</ele>
        <time>2023-11-11T22:34:31Z</time>
      </trkpt>
      <trkpt lat="47.6098" lon="-2.15998">
        <ele>51</ele>
        <time>2023-11-11T22:35:06Z</time>
      </trkpt>
      <trkpt lat="47.6097" lon="-2.16102">
        <ele>53</ele>
        <time>2023-11-11T22:36:40Z</time>
      </trkpt>
      <trkpt lat="47.60972" lon="-2.16221">
        <ele>53</ele>
        <time>2023-11-11T22:38:27Z</time>
      </trkpt>
      <trkpt lat="47.60954" lon="-2.16326">
        <ele>55</ele>
        <time>2023-11-11T22:40:05Z</time>
      </trkpt>
      <trkpt lat="47.60972" lon="-2.16344">
        <ele>56</ele>
        <time>2023-11-11T22:40:34Z</time>
      </trkpt>
      <trkpt lat="47.61084" lon="-2.16383">
        <ele>64</ele>
        <time>2023-11-11T22:43:07Z</time>
      </trkpt>
      <trkpt lat="47.6112" lon="-2.16385">
        <ele>66</ele>
        <time>2023-11-11T22:43:55Z</time>
      </trkpt>
      <trkpt lat="47.61166" lon="-2.16397">
        <ele>68</ele>
        <time>2023-11-11T22:44:58Z</time>
      </trkpt>
      <trkpt lat="47.61182" lon="-2.16394">
        <ele>70</ele>
        <time>2023-11-11T22:45:19Z</time>
      </trkpt>
      <trkpt lat="47.61197" lon="-2.16399">
        <ele>72</ele>
        <time>2023-11-11T22:45:40Z</time>
      </trkpt>
      <trkpt lat="47.61235" lon="-2.16398">
        <ele>77</ele>
        <time>2023-11-11T22:46:30Z</time>
      </trkpt>
      <trkpt lat="47.61248" lon="-2.16407">
        <ele>79</ele>
        <time>2023-11-11T22:46:50Z</time>
      </trkpt>
      <trkpt lat="47.61273" lon="-2.16407">
        <ele>78</ele>
        <time>2023-11-11T22:47:23Z</time>
      </trkpt>
      <trkpt lat="47.6131" lon="-2.16418">
        <ele>78</ele>
        <time>2023-11-11T22:48:13Z</time>
      </trkpt>
      <trkpt lat="47.61314" lon="-2.16414">
        <ele>77</ele>
        <time>2023-11-11T22:48:20Z</time>
      </trkpt>
      <trkpt lat="47.61296" lon="-2.16241">
        <ele>77</ele>
        <time>2023-11-11T22:50:57Z</time>
      </trkpt>
      <trkpt lat="47.61313" lon="-2.16099">
        <ele>74</ele>
        <time>2023-11-11T22:53:07Z</time>
      </trkpt>
      <trkpt lat="47.61431" lon="-2.16201">
        <ele>79</ele>
        <time>2023-11-11T22:56:09Z</time>
      </trkpt>
      <trkpt lat="47.61496" lon="-2.16269">
        <ele>80</ele>
        <time>2023-11-11T22:57:55Z</time>
      </trkpt>
      <trkpt lat="47.61532" lon="-2.16291">
        <ele>78</ele>
        <time>2023-11-11T22:58:47Z</time>
      </trkpt>
      <trkpt lat="47.61561" lon="-2.16301">
        <ele>76</ele>
        <time>2023-11-11T22:59:27Z</time>
      </trkpt>
      <trkpt lat="47.61566" lon="-2.16294">
        <ele>75</ele>
        <time>2023-11-11T22:59:36Z</time>
      </trkpt>
      <trkpt lat="47.61563" lon="-2.16289">
        <ele>76</ele>
        <time>2023-11-11T22:59:42Z</time>
      </trkpt>
      <trkpt lat="47.61566" lon="-2.16257">
        <ele>75</ele>
        <time>2023-11-11T23:00:11Z</time>
      </trkpt>
      <trkpt lat="47.61598" lon="-2.1607">
        <ele>75</ele>
        <time>2023-11-11T23:03:05Z</time>
      </trkpt>
      <trkpt lat="47.61614" lon="-2.15996">
        <ele>76</ele>
        <time>2023-11-11T23:04:15Z</time>
      </trkpt>
      <trkpt lat="47.61641" lon="-2.16008">
        <ele>75</ele>
        <time>2023-11-11T23:04:52Z</time>
      </trkpt>
      <trkpt lat="47.61784" lon="-2.16114">
        <ele>73</ele>
        <time>2023-11-11T23:08:26Z</time>
      </trkpt>
      <trkpt lat="47.61806" lon="-2.16144">
        <ele>75</ele>
        <time>2023-11-11T23:09:06Z</time>
      </trkpt>
      <trkpt lat="47.6187" lon="-2.16288">
        <ele>77</ele>
        <time>2023-11-11T23:11:41Z</time>
      </trkpt>
      <trkpt lat="47.61913" lon="-2.16438">
        <ele>72</ele>
        <time>2023-11-11T23:14:07Z</time>
      </trkpt>
      <trkpt lat="47.61943" lon="-2.16513">
        <ele>72</ele>
        <time>2023-11-11T23:15:26Z</time>
      </trkpt>
      <trkpt lat="47.61963" lon="-2.16534">
        <ele>73</ele>
        <time>2023-11-11T23:15:58Z</time>
      </trkpt>
      <trkpt lat="47.62013" lon="-2.16569">
        <ele>75</ele>
        <time>2023-11-11T23:17:12Z</time>
      </trkpt>
      <trkpt lat="47.62058" lon="-2.16583">
        <ele>76</ele>
        <time>2023-11-11T23:18:14Z</time>
      </trkpt>
      <trkpt lat="47.62123" lon="-2.16615">
        <ele>75</ele>
        <time>2023-11-11T23:19:45Z</time>
      </trkpt>
      <trkpt lat="47.62141" lon="-2.16609">
        <ele>74</ele>
        <time>2023-11-11T23:20:10Z</time>
      </trkpt>
      <trkpt lat="47.62156" lon="-2.16594">
        <ele>74</ele>
        <time>2023-11-11T23:20:34Z</time>
      </trkpt>
      <trkpt lat="47.62226" lon="-2.16489">
        <ele>73</ele>
        <time>2023-11-11T23:22:47Z</time>
      </trkpt>
      <trkpt lat="47.62287" lon="-2.16414">
        <ele>71</ele>
        <time>2023-11-11T23:24:32Z</time>
      </trkpt>
      <trkpt lat="47.62309" lon="-2.16398">
        <ele>70</ele>
        <time>2023-11-11T23:25:05Z</time>
      </trkpt>
      <trkpt lat="47.6233" lon="-2.164">
        <ele>69</ele>
        <time>2023-11-11T23:25:33Z</time>
      </trkpt>
      <trkpt lat="47.62364" lon="-2.16416">
        <ele>69</ele>
        <time>2023-11-11T23:26:21Z</time>
      </trkpt>
      <trkpt lat="47.62385" lon="-2.16414">
        <ele>69</ele>
        <time>2023-11-11T23:26:49Z</time>
      </trkpt>
      <trkpt lat="47.62441" lon="-2.16381">
        <ele>68</ele>
        <time>2023-11-11T23:28:09Z</time>
      </trkpt>
      <trkpt lat="47.62518" lon="-2.16349">
        <ele>67</ele>
        <time>2023-11-11T23:29:56Z</time>
      </trkpt>
      <trkpt lat="47.62526" lon="-2.16337">
        <ele>67</ele>
        <time>2023-11-11T23:30:11Z</time>
      </trkpt>
      <trkpt lat="47.62521" lon="-2.16331">
        <ele>67</ele>
        <time>2023-11-11T23:30:20Z</time>
      </trkpt>
      <trkpt lat="47.62507" lon="-2.16327">
        <ele>67</ele>
        <time>2023-11-11T23:30:39Z</time>
      </trkpt>
      <trkpt lat="47.62495" lon="-2.16326">
        <ele>67</ele>
        <time>2023-11-11T23:30:55Z</time>
      </trkpt>
      <trkpt lat="47.62483" lon="-2.16331">
        <ele>67</ele>
        <time>2023-11-11T23:31:11Z</time>
      </trkpt>
      <trkpt lat="47.62409" lon="-2.16325">
        <ele>69</ele>
        <time>2023-11-11T23:32:50Z</time>
      </trkpt>
      <trkpt lat="47.62394" lon="-2.16309">
        <ele>70</ele>
        <time>2023-11-11T23:33:15Z</time>
      </trkpt>
      <trkpt lat="47.62383" lon="-2.16285">
        <ele>70</ele>
        <time>2023-11-11T23:33:41Z</time>
      </trkpt>
      <trkpt lat="47.62368" lon="-2.16272">
        <ele>71</ele>
        <time>2023-11-11T23:34:04Z</time>
      </trkpt>
      <trkpt lat="47.62358" lon="-2.16245">
        <ele>71</ele>
        <time>2023-11-11T23:34:32Z</time>
      </trkpt>
      <trkpt lat="47.62339" lon="-2.16228">
        <ele>72</ele>
        <time>2023-11-11T23:35:02Z</time>
      </trkpt>
      <trkpt lat="47.62339" lon="-2.16221">
        <ele>72</ele>
        <time>2023-11-11T23:35:08Z</time>
      </trkpt>
      <trkpt lat="47.62312" lon="-2.16179">
        <ele>72</ele>
        <time>2023-11-11T23:36:00Z</time>
      </trkpt>
      <trkpt lat="47.62279" lon="-2.16148">
        <ele>72</ele>
        <time>2023-11-11T23:36:52Z</time>
      </trkpt>
      <trkpt lat="47.62277" lon="-2.16132">
        <ele>72</ele>
        <time>2023-11-11T23:37:07Z</time>
      </trkpt>
      <trkpt lat="47.62253" lon="-2.16094">
        <ele>73</ele>
        <time>2023-11-11T23:37:54Z</time>
      </trkpt>
      <trkpt lat="47.62234" lon="-2.16081">
        <ele>73</ele>
        <time>2023-11-11T23:38:22Z</time>
      </trkpt>
      <trkpt lat="47.6222" lon="-2.16052">
        <ele>72</ele>
        <time>2023-11-11T23:38:54Z</time>
      </trkpt>
      <trkpt lat="47.62191" lon="-2.16029">
        <ele>71</ele>
        <time>2023-11-11T23:39:37Z</time>
      </trkpt>
      <trkpt lat="47.62173" lon="-2.15992">
        <ele>71</ele>
        <time>2023-11-11T23:40:19Z</time>
      </trkpt>
      <trkpt lat="47.62133" lon="-2.15941">
        <ele>74</ele>
        <time>2023-11-11T23:41:29Z</time>
      </trkpt>
      <trkpt lat="47.62123" lon="-2.15922">
        <ele>75</ele>
        <time>2023-11-11T23:41:51Z</time>
      </trkpt>
      <trkpt lat="47.62093" lon="-2.1588">
        <ele>76</ele>
        <time>2023-11-11T23:42:46Z</time>
      </trkpt>
      <trkpt lat="47.62074" lon="-2.15867">
        <ele>76</ele>
        <time>2023-11-11T23:43:14Z</time>
      </trkpt>
      <trkpt lat="47.62009" lon="-2.15759">
        <ele>76</ele>
        <time>2023-11-11T23:45:24Z</time>
      </trkpt>
      <trkpt lat="47.62003" lon="-2.15741">
        <ele>77</ele>
        <time>2023-11-11T23:45:42Z</time>
      </trkpt>
      <trkpt lat="47.61977" lon="-2.15699">
        <ele>76</ele>
        <time>2023-11-11T23:46:33Z</time>
      </trkpt>
      <trkpt lat="47.61969" lon="-2.15694">
        <ele>76</ele>
        <time>2023-11-11T23:46:45Z</time>
      </trkpt>
      <trkpt lat="47.61963" lon="-2.15701">
        <ele>77</ele>
        <time>2023-11-11T23:46:55Z</time>
      </trkpt>
      <trkpt lat="47.61955" lon="-2.15701">
        <ele>77</ele>
        <time>2023-11-11T23:47:06Z</time>
      </trkpt>
      <trkpt lat="47.61878" lon="-2.15584">
        <ele>82</ele>
        <time>2023-11-11T23:49:33Z</time>
      </trkpt>
      <trkpt lat="47.61825" lon="-2.15511">
        <ele>84</ele>
        <time>2023-11-11T23:51:09Z</time>
      </trkpt>
      <trkpt lat="47.61773" lon="-2.15454">
        <ele>83</ele>
        <time>2023-11-11T23:52:35Z</time>
      </trkpt>
      <trkpt lat="47.61771" lon="-2.15444">
        <ele>83</ele>
        <time>2023-11-11T23:52:45Z</time>
      </trkpt>
      <trkpt lat="47.61841" lon="-2.1526">
        <ele>84</ele>
        <time>2023-11-11T23:55:55Z</time>
      </trkpt>
      <trkpt lat="47.61847" lon="-2.15205">
        <ele>82</ele>
        <time>2023-11-11T23:56:45Z</time>
      </trkpt>
      <trkpt lat="47.61871" lon="-2.15133">
        <ele>79</ele>
        <time>2023-11-11T23:57:57Z</time>
      </trkpt>
      <trkpt lat="47.61885" lon="-2.15107">
        <ele>78</ele>
        <time>2023-11-11T23:58:27Z</time>
      </trkpt>
      <trkpt lat="47.61961" lon="-2.14786">
        <ele>73</ele>
        <time>2023-11-12T00:03:33Z</time>
      </trkpt>
      <trkpt lat="47.61966" lon="-2.14749">
        <ele>73</ele>
        <time>2023-11-12T00:04:07Z</time>
      </trkpt>
      <trkpt lat="47.61964" lon="-2.14593">
        <ele>72</ele>
        <time>2023-11-12T00:06:28Z</time>
      </trkpt>
      <trkpt lat="47.61984" lon="-2.14419">
        <ele>64</ele>
        <time>2023-11-12T00:09:06Z</time>
      </trkpt>
      <trkpt lat="47.61989" lon="-2.14306">
        <ele>57</ele>
        <time>2023-11-12T00:10:48Z</time>
      </trkpt>
      <trkpt lat="47.62007" lon="-2.14162">
        <ele>48</ele>
        <time>2023-11-12T00:13:00Z</time>
      </trkpt>
      <trkpt lat="47.6199" lon="-2.14076">
        <ele>45</ele>
        <time>2023-11-12T00:14:21Z</time>
      </trkpt>
      <trkpt lat="47.62005" lon="-2.13928">
        <ele>42</ele>
        <time>2023-11-12T00:16:35Z</time>
      </trkpt>
      <trkpt lat="47.62003" lon="-2.13913">
        <ele>42</ele>
        <time>2023-11-12T00:16:49Z</time>
      </trkpt>
      <trkpt lat="47.62009" lon="-2.13864">
        <ele>42</ele>
        <time>2023-11-12T00:17:34Z</time>
      </trkpt>
      <trkpt lat="47.62026" lon="-2.13812">
        <ele>42</ele>
        <time>2023-11-12T00:18:26Z</time>
      </trkpt>
      <trkpt lat="47.62028" lon="-2.13744">
        <ele>42</ele>
        <time>2023-11-12T00:19:27Z</time>
      </trkpt>
      <trkpt lat="47.62044" lon="-2.13693">
        <ele>39</ele>
        <time>2023-11-12T00:20:17Z</time>
      </trkpt>
      <trkpt lat="47.62066" lon="-2.13568">
        <ele>36</ele>
        <time>2023-11-12T00:22:14Z</time>
      </trkpt>
      <trkpt lat="47.62054" lon="-2.13382">
        <ele>40</ele>
        <time>2023-11-12T00:25:02Z</time>
      </trkpt>
      <trkpt lat="47.62034" lon="-2.13363">
        <ele>41</ele>
        <time>2023-11-12T00:25:33Z</time>
      </trkpt>
      <trkpt lat="47.62035" lon="-2.13317">
        <ele>42</ele>
        <time>2023-11-12T00:26:15Z</time>
      </trkpt>
      <trkpt lat="47.6203" lon="-2.13296">
        <ele>43</ele>
        <time>2023-11-12T00:26:35Z</time>
      </trkpt>
      <trkpt lat="47.62023" lon="-2.1318">
        <ele>47</ele>
        <time>2023-11-12T00:28:20Z</time>
      </trkpt>
      <trkpt lat="47.62041" lon="-2.13102">
        <ele>46</ele>
        <time>2023-11-12T00:29:34Z</time>
      </trkpt>
      <trkpt lat="47.62068" lon="-2.12933">
        <ele>40</ele>
        <time>2023-11-12T00:32:10Z</time>
      </trkpt>
      <trkpt lat="47.62097" lon="-2.12791">
        <ele>35</ele>
        <time>2023-11-12T00:34:23Z</time>
      </trkpt>
      <trkpt lat="47.62102" lon="-2.12737">
        <ele>33</ele>
        <time>2023-11-12T00:35:13Z</time>
      </trkpt>
      <trkpt lat="47.621" lon="-2.12667">
        <ele>33</ele>
        <time>2023-11-12T00:36:16Z</time>
      </trkpt>
      <trkpt lat="47.62105" lon="-2.12394">
        <ele>32</ele>
        <time>2023-11-12T00:40:21Z</time>
      </trkpt>
      <trkpt lat="47.62091" lon="-2.12388">
        <ele>33</ele>
        <time>2023-11-12T00:40:41Z</time>
      </trkpt>
      <trkpt lat="47.62064" lon="-2.12394">
        <ele>35</ele>
        <time>2023-11-12T00:41:17Z</time>
      </trkpt>
      <trkpt lat="47.62042" lon="-2.12393">
        <ele>36</ele>
        <time>2023-11-12T00:41:46Z</time>
      </trkpt>
      <trkpt lat="47.61945" lon="-2.1242">
        <ele>48</ele>
        <time>2023-11-12T00:43:58Z</time>
      </trkpt>
      <trkpt lat="47.61914" lon="-2.12419">
        <ele>53</ele>
        <time>2023-11-12T00:44:40Z</time>
      </trkpt>
      <trkpt lat="47.61906" lon="-2.12412">
        <ele>55</ele>
        <time>2023-11-12T00:44:52Z</time>
      </trkpt>
      <trkpt lat="47.61914" lon="-2.12376">
        <ele>55</ele>
        <time>2023-11-12T00:45:26Z</time>
      </trkpt>
      <trkpt lat="47.61911" lon="-2.12367">
        <ele>56</ele>
        <time>2023-11-12T00:45:35Z</time>
      </trkpt>
      <trkpt lat="47.61915" lon="-2.12332">
        <ele>56</ele>
        <time>2023-11-12T00:46:07Z</time>
      </trkpt>
      <trkpt lat="47.61908" lon="-2.12304">
        <ele>59</ele>
        <time>2023-11-12T00:46:34Z</time>
      </trkpt>
      <trkpt lat="47.61908" lon="-2.12262">
        <ele>60</ele>
        <time>2023-11-12T00:47:12Z</time>
      </trkpt>
      <trkpt lat="47.61914" lon="-2.12243">
        <ele>60</ele>
        <time>2023-11-12T00:47:30Z</time>
      </trkpt>
      <trkpt lat="47.61907" lon="-2.12212">
        <ele>61</ele>
        <time>2023-11-12T00:48:00Z</time>
      </trkpt>
      <trkpt lat="47.61921" lon="-2.12197">
        <ele>58</ele>
        <time>2023-11-12T00:48:23Z</time>
      </trkpt>
      <trkpt lat="47.61925" lon="-2.12184">
        <ele>57</ele>
        <time>2023-11-12T00:48:36Z</time>
      </trkpt>
      <trkpt lat="47.61948" lon="-2.1205">
        <ele>51</ele>
        <time>2023-11-12T00:50:40Z</time>
      </trkpt>
      <trkpt lat="47.61973" lon="-2.12008">
        <ele>45</ele>
        <time>2023-11-12T00:51:31Z</time>
      </trkpt>
      <trkpt lat="47.61972" lon="-2.11985">
        <ele>44</ele>
        <time>2023-11-12T00:51:51Z</time>
      </trkpt>
      <trkpt lat="47.61931" lon="-2.11909">
        <ele>45</ele>
        <time>2023-11-12T00:53:19Z</time>
      </trkpt>
      <trkpt lat="47.61916" lon="-2.11906">
        <ele>47</ele>
        <time>2023-11-12T00:53:39Z</time>
      </trkpt>
      <trkpt lat="47.61901" lon="-2.1192">
        <ele>48</ele>
        <time>2023-11-12T00:54:03Z</time>
      </trkpt>
      <trkpt lat="47.6192" lon="-2.11877">
        <ele>46</ele>
        <time>2023-11-12T00:54:49Z</time>
      </trkpt>
      <trkpt lat="47.61943" lon="-2.1186">
        <ele>44</ele>
        <time>2023-11-12T00:55:23Z</time>
      </trkpt>
      <trkpt lat="47.61955" lon="-2.11841">
        <ele>42</ele>
        <time>2023-11-12T00:55:47Z</time>
      </trkpt>
      <trkpt lat="47.61955" lon="-2.11824">
        <ele>42</ele>
        <time>2023-11-12T00:56:02Z</time>
      </trkpt>
      <trkpt lat="47.61949" lon="-2.1181">
        <ele>41</ele>
        <time>2023-11-12T00:56:17Z</time>
      </trkpt>
      <trkpt lat="47.61957" lon="-2.11805">
        <ele>40</ele>
        <time>2023-11-12T00:56:28Z</time>
      </trkpt>
      <trkpt lat="47.61961" lon="-2.11788">
        <ele>39</ele>
        <time>2023-11-12T00:56:45Z</time>
      </trkpt>
      <trkpt lat="47.61957" lon="-2.11769">
        <ele>37</ele>
        <time>2023-11-12T00:57:03Z</time>
      </trkpt>
      <trkpt lat="47.61976" lon="-2.11749">
        <ele>35</ele>
        <time>2023-11-12T00:57:34Z</time>
      </trkpt>
      <trkpt lat="47.62018" lon="-2.11734">
        <ele>30</ele>
        <time>2023-11-12T00:58:31Z</time>
      </trkpt>
      <trkpt lat="47.62077" lon="-2.11694">
        <ele>25</ele>
        <time>2023-11-12T00:59:58Z</time>
      </trkpt>
      <trkpt lat="47.62152" lon="-2.11666">
        <ele>22</ele>
        <time>2023-11-12T01:01:41Z</time>
      </trkpt>
      <trkpt lat="47.62166" lon="-2.11652">
        <ele>21</ele>
        <time>2023-11-12T01:02:04Z</time>
      </trkpt>
      <trkpt lat="47.62133" lon="-2.11573">
        <ele>22</ele>
        <time>2023-11-12T01:03:27Z</time>
      </trkpt>
      <trkpt lat="47.62092" lon="-2.11434">
        <ele>16</ele>
        <time>2023-11-12T01:05:44Z</time>
      </trkpt>
      <trkpt lat="47.62058" lon="-2.11427">
        <ele>15</ele>
        <time>2023-11-12T01:06:29Z</time>
      </trkpt>
      <trkpt lat="47.62055" lon="-2.11335">
        <ele>13</ele>
        <time>2023-11-12T01:07:52Z</time>
      </trkpt>
      <trkpt lat="47.62064" lon="-2.1131">
        <ele>12</ele>
        <time>2023-11-12T01:08:18Z</time>
      </trkpt>
      <trkpt lat="47.6205" lon="-2.11288">
        <ele>12</ele>
        <time>2023-11-12T01:08:45Z</time>
      </trkpt>
      <trkpt lat="47.62006" lon="-2.11277">
        <ele>12</ele>
        <time>2023-11-12T01:09:45Z</time>
      </trkpt>
      <trkpt lat="47.61995" lon="-2.11207">
        <ele>10</ele>
        <time>2023-11-12T01:10:49Z</time>
      </trkpt>
      <trkpt lat="47.61962" lon="-2.112">
        <ele>10</ele>
        <time>2023-11-12T01:11:34Z</time>
      </trkpt>
      <trkpt lat="47.61971" lon="-2.11184">
        <ele>9</ele>
        <time>2023-11-12T01:11:52Z</time>
      </trkpt>
      <trkpt lat="47.61929" lon="-2.11178">
        <ele>9</ele>
        <time>2023-11-12T01:12:49Z</time>
      </trkpt>
      <trkpt lat="47.61944" lon="-2.11132">
        <ele>8</ele>
        <time>2023-11-12T01:13:35Z</time>
      </trkpt>
      <trkpt lat="47.61939" lon="-2.11125">
        <ele>8</ele>
        <time>2023-11-12T01:13:44Z</time>
      </trkpt>
      <trkpt lat="47.61931" lon="-2.11153">
        <ele>9</ele>
        <time>2023-11-12T01:14:11Z</time>
      </trkpt>
      <trkpt lat="47.61925" lon="-2.11228">
        <ele>10</ele>
        <time>2023-11-12T01:15:19Z</time>
      </trkpt>
      <trkpt lat="47.61912" lon="-2.11251">
        <ele>10</ele>
        <time>2023-11-12T01:15:46Z</time>
      </trkpt>
      <trkpt lat="47.619" lon="-2.1126">
        <ele>10</ele>
        <time>2023-11-12T01:16:04Z</time>
      </trkpt>
      <trkpt lat="47.6181" lon="-2.11245">
        <ele>10</ele>
        <time>2023-11-12T01:18:05Z</time>
      </trkpt>
      <trkpt lat="47.61763" lon="-2.11224">
        <ele>10</ele>
        <time>2023-11-12T01:19:11Z</time>
      </trkpt>
      <trkpt lat="47.61702" lon="-2.11216">
        <ele>10</ele>
        <time>2023-11-12T01:20:32Z</time>
      </trkpt>
      <trkpt lat="47.61651" lon="-2.11226">
        <ele>10</ele>
        <time>2023-11-12T01:21:41Z</time>
      </trkpt>
      <trkpt lat="47.61592" lon="-2.11219">
        <ele>10</ele>
        <time>2023-11-12T01:23:00Z</time>
      </trkpt>
      <trkpt lat="47.61571" lon="-2.1123">
        <ele>10</ele>
        <time>2023-11-12T01:23:30Z</time>
      </trkpt>
      <trkpt lat="47.61545" lon="-2.11211">
        <ele>9</ele>
        <time>2023-11-12T01:24:08Z</time>
      </trkpt>
      <trkpt lat="47.61521" lon="-2.11205">
        <ele>9</ele>
        <time>2023-11-12T01:24:41Z</time>
      </trkpt>
      <trkpt lat="47.61507" lon="-2.11194">
        <ele>8</ele>
        <time>2023-11-12T01:25:02Z</time>
      </trkpt>
      <trkpt lat="47.61495" lon="-2.11177">
        <ele>7</ele>
        <time>2023-11-12T01:25:24Z</time>
      </trkpt>
      <trkpt lat="47.61486" lon="-2.1119">
        <ele>8</ele>
        <time>2023-11-12T01:25:41Z</time>
      </trkpt>
      <trkpt lat="47.6136" lon="-2.11224">
        <ele>9</ele>
        <time>2023-11-12T01:28:32Z</time>
      </trkpt>
      <trkpt lat="47.61353" lon="-2.11238">
        <ele>9</ele>
        <time>2023-11-12T01:28:47Z</time>
      </trkpt>
      <trkpt lat="47.61289" lon="-2.11307">
        <ele>10</ele>
        <time>2023-11-12T01:30:33Z</time>
      </trkpt>
      <trkpt lat="47.6127" lon="-2.11318">
        <ele>10</ele>
        <time>2023-11-12T01:31:00Z</time>
      </trkpt>
      <trkpt lat="47.61249" lon="-2.11315">
        <ele>11</ele>
        <time>2023-11-12T01:31:28Z</time>
      </trkpt>
      <trkpt lat="47.6115" lon="-2.11276">
        <ele>9</ele>
        <time>2023-11-12T01:33:45Z</time>
      </trkpt>
      <trkpt lat="47.61118" lon="-2.11274">
        <ele>9</ele>
        <time>2023-11-12T01:34:28Z</time>
      </trkpt>
      <trkpt lat="47.61099" lon="-2.11296">
        <ele>9</ele>
        <time>2023-11-12T01:35:00Z</time>
      </trkpt>
      <trkpt lat="47.61085" lon="-2.11356">
        <ele>10</ele>
        <time>2023-11-12T01:35:57Z</time>
      </trkpt>
      <trkpt lat="47.61075" lon="-2.11372">
        <ele>10</ele>
        <time>2023-11-12T01:36:17Z</time>
      </trkpt>
      <trkpt lat="47.61067" lon="-2.11374">
        <ele>10</ele>
        <time>2023-11-12T01:36:27Z</time>
      </trkpt>
      <trkpt lat="47.61066" lon="-2.11382">
        <ele>11</ele>
        <time>2023-11-12T01:36:35Z</time>
      </trkpt>
      <trkpt lat="47.61038" lon="-2.11346">
        <ele>10</ele>
        <time>2023-11-12T01:37:24Z</time>
      </trkpt>
      <trkpt lat="47.61016" lon="-2.11297">
        <ele>10</ele>
        <time>2023-11-12T01:38:17Z</time>
      </trkpt>
      <trkpt lat="47.61005" lon="-2.11267">
        <ele>10</ele>
        <time>2023-11-12T01:38:48Z</time>
      </trkpt>
      <trkpt lat="47.60997" lon="-2.11257">
        <ele>10</ele>
        <time>2023-11-12T01:39:02Z</time>
      </trkpt>
      <trkpt lat="47.60934" lon="-2.11336">
        <ele>13</ele>
        <time>2023-11-12T01:40:52Z</time>
      </trkpt>
      <trkpt lat="47.60864" lon="-2.11379">
        <ele>17</ele>
        <time>2023-11-12T01:42:33Z</time>
      </trkpt>
      <trkpt lat="47.60831" lon="-2.11388">
        <ele>19</ele>
        <time>2023-11-12T01:43:18Z</time>
      </trkpt>
      <trkpt lat="47.60806" lon="-2.11403">
        <ele>20</ele>
        <time>2023-11-12T01:43:54Z</time>
      </trkpt>
      <trkpt lat="47.60731" lon="-2.11499">
        <ele>30</ele>
        <time>2023-11-12T01:46:06Z</time>
      </trkpt>
      <trkpt lat="47.60724" lon="-2.11498">
        <ele>31</ele>
        <time>2023-11-12T01:46:15Z</time>
      </trkpt>
      <trkpt lat="47.6071" lon="-2.11471">
        <ele>30</ele>
        <time>2023-11-12T01:46:46Z</time>
      </trkpt>
      <trkpt lat="47.60691" lon="-2.11403">
        <ele>27</ele>
        <time>2023-11-12T01:47:52Z</time>
      </trkpt>
      <trkpt lat="47.60647" lon="-2.11271">
        <ele>24</ele>
        <time>2023-11-12T01:50:05Z</time>
      </trkpt>
      <trkpt lat="47.60579" lon="-2.11124">
        <ele>15</ele>
        <time>2023-11-12T01:52:45Z</time>
      </trkpt>
      <trkpt lat="47.60559" lon="-2.11066">
        <ele>13</ele>
        <time>2023-11-12T01:53:44Z</time>
      </trkpt>
      <trkpt lat="47.60543" lon="-2.11045">
        <ele>14</ele>
        <time>2023-11-12T01:54:12Z</time>
      </trkpt>
      <trkpt lat="47.60521" lon="-2.10994">
        <ele>12</ele>
        <time>2023-11-12T01:55:07Z</time>
      </trkpt>
      <trkpt lat="47.60475" lon="-2.10949">
        <ele>12</ele>
        <time>2023-11-12T01:56:20Z</time>
      </trkpt>
      <trkpt lat="47.60472" lon="-2.10939">
        <ele>11</ele>
        <time>2023-11-12T01:56:30Z</time>
      </trkpt>
      <trkpt lat="47.60457" lon="-2.10931">
        <ele>11</ele>
        <time>2023-11-12T01:56:51Z</time>
      </trkpt>
      <trkpt lat="47.60404" lon="-2.10877">
        <ele>11</ele>
        <time>2023-11-12T01:58:17Z</time>
      </trkpt>
      <trkpt lat="47.60387" lon="-2.10853">
        <ele>12</ele>
        <time>2023-11-12T01:58:49Z</time>
      </trkpt>
      <trkpt lat="47.60369" lon="-2.1085">
        <ele>14</ele>
        <time>2023-11-12T01:59:13Z</time>
      </trkpt>
      <trkpt lat="47.60353" lon="-2.10857">
        <ele>16</ele>
        <time>2023-11-12T01:59:35Z</time>
      </trkpt>
      <trkpt lat="47.60318" lon="-2.10843">
        <ele>20</ele>
        <time>2023-11-12T02:00:23Z</time>
      </trkpt>
      <trkpt lat="47.60306" lon="-2.10843">
        <ele>22</ele>
        <time>2023-11-12T02:00:39Z</time>
      </trkpt>
      <trkpt lat="47.60264" lon="-2.1081">
        <ele>25</ele>
        <time>2023-11-12T02:01:43Z</time>
      </trkpt>
      <trkpt lat="47.60256" lon="-2.10799">
        <ele>25</ele>
        <time>2023-11-12T02:01:57Z</time>
      </trkpt>
      <trkpt lat="47.60206" lon="-2.10768">
        <ele>25</ele>
        <time>2023-11-12T02:03:10Z</time>
      </trkpt>
      <trkpt lat="47.60186" lon="-2.1075">
        <ele>25</ele>
        <time>2023-11-12T02:03:41Z</time>
      </trkpt>
      <trkpt lat="47.60162" lon="-2.10735">
        <ele>24</ele>
        <time>2023-11-12T02:04:16Z</time>
      </trkpt>
      <trkpt lat="47.60149" lon="-2.10732">
        <ele>24</ele>
        <time>2023-11-12T02:04:33Z</time>
      </trkpt>
      <trkpt lat="47.60149" lon="-2.10737">
        <ele>25</ele>
        <time>2023-11-12T02:04:38Z</time>
      </trkpt>
      <trkpt lat="47.60146" lon="-2.10737">
        <ele>25</ele>
        <time>2023-11-12T02:04:42Z</time>
      </trkpt>
      <trkpt lat="47.60146" lon="-2.10727">
        <ele>24</ele>
        <time>2023-11-12T02:04:51Z</time>
      </trkpt>
      <trkpt lat="47.60131" lon="-2.10713">
        <ele>22</ele>
        <time>2023-11-12T02:05:14Z</time>
      </trkpt>
      <trkpt lat="47.60104" lon="-2.10655">
        <ele>18</ele>
        <time>2023-11-12T02:06:18Z</time>
      </trkpt>
      <trkpt lat="47.60104" lon="-2.10648">
        <ele>18</ele>
        <time>2023-11-12T02:06:24Z</time>
      </trkpt>
      <trkpt lat="47.59995" lon="-2.10524">
        <ele>14</ele>
        <time>2023-11-12T02:09:27Z</time>
      </trkpt>
      <trkpt lat="47.5998" lon="-2.105">
        <ele>14</ele>
        <time>2023-11-12T02:09:57Z</time>
      </trkpt>
      <trkpt lat="47.59963" lon="-2.10412">
        <ele>11</ele>
        <time>2023-11-12T02:11:19Z</time>
      </trkpt>
      <trkpt lat="47.59955" lon="-2.10385">
        <ele>11</ele>
        <time>2023-11-12T02:11:46Z</time>
      </trkpt>
      <trkpt lat="47.59967" lon="-2.10345">
        <ele>9</ele>
        <time>2023-11-12T02:12:25Z</time>
      </trkpt>
      <trkpt lat="47.59979" lon="-2.10238">
        <ele>8</ele>
        <time>2023-11-12T02:14:03Z</time>
      </trkpt>
      <trkpt lat="47.59979" lon="-2.10201">
        <ele>7</ele>
        <time>2023-11-12T02:14:36Z</time>
      </trkpt>
      <trkpt lat="47.59969" lon="-2.10165">
        <ele>7</ele>
        <time>2023-11-12T02:15:11Z</time>
      </trkpt>
      <trkpt lat="47.5997" lon="-2.10132">
        <ele>6</ele>
        <time>2023-11-12T02:15:41Z</time>
      </trkpt>
      <trkpt lat="47.59957" lon="-2.10062">
        <ele>7</ele>
        <time>2023-11-12T02:16:46Z</time>
      </trkpt>
      <trkpt lat="47.59958" lon="-2.1004">
        <ele>7</ele>
        <time>2023-11-12T02:17:06Z</time>
      </trkpt>
      <trkpt lat="47.5997" lon="-2.10003">
        <ele>7</ele>
        <time>2023-11-12T02:17:43Z</time>
      </trkpt>
      <trkpt lat="47.59964" lon="-2.09963">
        <ele>9</ele>
        <time>2023-11-12T02:18:20Z</time>
      </trkpt>
      <trkpt lat="47.59969" lon="-2.09893">
        <ele>8</ele>
        <time>2023-11-12T02:19:23Z</time>
      </trkpt>
      <trkpt lat="47.59966" lon="-2.09861">
        <ele>8</ele>
        <time>2023-11-12T02:19:52Z</time>
      </trkpt>
      <trkpt lat="47.59956" lon="-2.09806">
        <ele>6</ele>
        <time>2023-11-12T02:20:44Z</time>
      </trkpt>
      <trkpt lat="47.59951" lon="-2.09802">
        <ele>7</ele>
        <time>2023-11-12T02:20:51Z</time>
      </trkpt>
      <trkpt lat="47.59943" lon="-2.09778">
        <ele>6</ele>
        <time>2023-11-12T02:21:15Z</time>
      </trkpt>
      <trkpt lat="47.59931" lon="-2.09773">
        <ele>6</ele>
        <time>2023-11-12T02:21:32Z</time>
      </trkpt>
      <trkpt lat="47.59915" lon="-2.09774">
        <ele>7</ele>
        <time>2023-11-12T02:21:53Z</time>
      </trkpt>
      <trkpt lat="47.59916" lon="-2.09785">
        <ele>8</ele>
        <time>2023-11-12T02:22:03Z</time>
      </trkpt>
      <trkpt lat="47.59927" lon="-2.09783">
        <ele>7</ele>
        <time>2023-11-12T02:22:18Z</time>
      </trkpt>
      <trkpt lat="47.59921" lon="-2.0981">
        <ele>10</ele>
        <time>2023-11-12T02:22:44Z</time>
      </trkpt>
      <trkpt lat="47.59909" lon="-2.09816">
        <ele>11</ele>
        <time>2023-11-12T02:23:00Z</time>
      </trkpt>
      <trkpt lat="47.59902" lon="-2.09809">
        <ele>10</ele>
        <time>2023-11-12T02:23:12Z</time>
      </trkpt>
      <trkpt lat="47.5988" lon="-2.09869">
        <ele>12</ele>
        <time>2023-11-12T02:24:13Z</time>
      </trkpt>
      <trkpt lat="47.59879" lon="-2.09889">
        <ele>13</ele>
        <time>2023-11-12T02:24:31Z</time>
      </trkpt>
      <trkpt lat="47.59885" lon="-2.09901">
        <ele>15</ele>
        <time>2023-11-12T02:24:45Z</time>
      </trkpt>
      <trkpt lat="47.59891" lon="-2.09894">
        <ele>15</ele>
        <time>2023-11-12T02:24:55Z</time>
      </trkpt>
      <trkpt lat="47.5991" lon="-2.09904">
        <ele>18</ele>
        <time>2023-11-12T02:25:22Z</time>
      </trkpt>
      <trkpt lat="47.59895" lon="-2.09903">
        <ele>16</ele>
        <time>2023-11-12T02:25:42Z</time>
      </trkpt>
      <trkpt lat="47.59883" lon="-2.09939">
        <ele>15</ele>
        <time>2023-11-12T02:26:18Z</time>
      </trkpt>
      <trkpt lat="47.59883" lon="-2.09965">
        <ele>14</ele>
        <time>2023-11-12T02:26:41Z</time>
      </trkpt>
      <trkpt lat="47.599" lon="-2.10011">
        <ele>13</ele>
        <time>2023-11-12T02:27:29Z</time>
      </trkpt>
      <trkpt lat="47.59896" lon="-2.10031">
        <ele>12</ele>
        <time>2023-11-12T02:27:47Z</time>
      </trkpt>
      <trkpt lat="47.59879" lon="-2.10071">
        <ele>10</ele>
        <time>2023-11-12T02:28:30Z</time>
      </trkpt>
      <trkpt lat="47.59863" lon="-2.10096">
        <ele>11</ele>
        <time>2023-11-12T02:29:01Z</time>
      </trkpt>
      <trkpt lat="47.59857" lon="-2.10099">
        <ele>11</ele>
        <time>2023-11-12T02:29:09Z</time>
      </trkpt>
      <trkpt lat="47.5983" lon="-2.10159">
        <ele>13</ele>
        <time>2023-11-12T02:30:14Z</time>
      </trkpt>
      <trkpt lat="47.59834" lon="-2.10216">
        <ele>16</ele>
        <time>2023-11-12T02:31:06Z</time>
      </trkpt>
      <trkpt lat="47.59826" lon="-2.1029">
        <ele>17</ele>
        <time>2023-11-12T02:32:13Z</time>
      </trkpt>
      <trkpt lat="47.598" lon="-2.10307">
        <ele>16</ele>
        <time>2023-11-12T02:32:51Z</time>
      </trkpt>
      <trkpt lat="47.59841" lon="-2.10323">
        <ele>18</ele>
        <time>2023-11-12T02:33:48Z</time>
      </trkpt>
      <trkpt lat="47.59848" lon="-2.10358">
        <ele>18</ele>
        <time>2023-11-12T02:34:21Z</time>
      </trkpt>
      <trkpt lat="47.59839" lon="-2.10397">
        <ele>19</ele>
        <time>2023-11-12T02:34:58Z</time>
      </trkpt>
      <trkpt lat="47.59838" lon="-2.10425">
        <ele>19</ele>
        <time>2023-11-12T02:35:23Z</time>
      </trkpt>
      <trkpt lat="47.59807" lon="-2.1052">
        <ele>20</ele>
        <time>2023-11-12T02:36:58Z</time>
      </trkpt>
      <trkpt lat="47.59812" lon="-2.10556">
        <ele>21</ele>
        <time>2023-11-12T02:37:31Z</time>
      </trkpt>
      <trkpt lat="47.59809" lon="-2.10589">
        <ele>23</ele>
        <time>2023-11-12T02:38:01Z</time>
      </trkpt>
      <trkpt lat="47.59801" lon="-2.10615">
        <ele>23</ele>
        <time>2023-11-12T02:38:27Z</time>
      </trkpt>
      <trkpt lat="47.59784" lon="-2.10707">
        <ele>24</ele>
        <time>2023-11-12T02:39:52Z</time>
      </trkpt>
      <trkpt lat="47.59779" lon="-2.10777">
        <ele>24</ele>
        <time>2023-11-12T02:40:56Z</time>
      </trkpt>
      <trkpt lat="47.5976" lon="-2.10869">
        <ele>25</ele>
        <time>2023-11-12T02:42:22Z</time>
        <extensions>
          <visugpx:TrkExtension xmlns:visugpx="https://www.visugpx.com/editgpx/">
            <visugpx:node>1</visugpx:node>
            </visugpx:TrkExtension>
        </extensions>
      </trkpt>
    </trkseg>
  </trk>
</gpx>